createdAt,value
2018-12-03T00:01:12.550Z,84.07
2018-12-03T00:03:42.119Z,87.70
2018-12-03T00:06:11.652Z,84.83
2018-12-03T00:08:41.052Z,87.80
2018-12-03T00:11:10.556Z,86.47
2018-12-03T00:13:40.071Z,97.50
2018-12-03T00:16:09.728Z,87.93
2018-12-03T00:18:39.162Z,94.57
2018-12-03T00:21:08.598Z,86.97
2018-12-03T00:23:38.088Z,86.03
2018-12-03T00:26:07.645Z,86.93
2018-12-03T00:28:37.175Z,86.93
2018-12-03T00:31:06.857Z,83.23
2018-12-03T00:33:36.450Z,86.53
2018-12-03T00:36:06.116Z,81.20
2018-12-03T00:38:35.544Z,85.47
2018-12-03T00:41:05.029Z,88.33
2018-12-03T00:43:34.532Z,85.10
2018-12-03T00:46:03.940Z,93.63
2018-12-03T00:48:33.524Z,93.53
2018-12-03T00:51:02.944Z,85.33
2018-12-03T00:53:32.449Z,87.67
2018-12-03T00:56:02.024Z,88.37
2018-12-03T00:58:31.415Z,96.23
2018-12-03T01:01:00.851Z,91.53
2018-12-03T01:03:30.241Z,85.17
2018-12-03T01:05:59.830Z,84.57
2018-12-03T01:08:29.315Z,91.37
2018-12-03T01:10:58.971Z,79.97
2018-12-03T01:13:28.427Z,93.03
2018-12-03T01:15:57.936Z,90.67
2018-12-03T01:18:27.368Z,88.43
2018-12-03T01:20:56.880Z,90.80
2018-12-03T01:23:26.299Z,93.03
2018-12-03T01:25:55.872Z,95.17
2018-12-03T01:28:25.304Z,85.90
2018-12-03T01:30:54.699Z,89.20
2018-12-03T01:33:24.188Z,84.13
2018-12-03T01:35:53.532Z,91.13
2018-12-03T01:38:23.167Z,90.07
2018-12-03T01:40:52.704Z,91.50
2018-12-03T01:43:22.208Z,91.53
2018-12-03T01:45:51.737Z,85.97
2018-12-03T01:48:21.307Z,83.93
2018-12-03T01:50:50.827Z,90.97
2018-12-03T01:53:20.230Z,89.53
2018-12-03T01:55:49.706Z,89.83
2018-12-03T01:58:19.215Z,89.00
2018-12-03T02:00:48.655Z,88.73
2018-12-03T02:03:18.146Z,86.17
2018-12-03T02:05:47.554Z,86.30
2018-12-03T02:08:16.969Z,83.30
2018-12-03T02:10:46.439Z,94.20
2018-12-03T02:13:16.024Z,93.87
2018-12-03T02:15:45.584Z,96.90
2018-12-03T02:18:15.226Z,96.47
2018-12-03T02:20:44.863Z,97.60
2018-12-03T02:23:14.391Z,90.90
2018-12-03T02:25:43.797Z,89.63
2018-12-03T02:28:13.210Z,92.97
2018-12-03T02:30:42.793Z,94.40
2018-12-03T02:33:12.317Z,83.40
2018-12-03T02:35:41.825Z,92.20
2018-12-03T02:38:11.332Z,103.20
2018-12-03T02:40:40.852Z,86.60
2018-12-03T02:43:10.490Z,82.70
2018-12-03T02:45:40.036Z,92.60
2018-12-03T02:48:09.388Z,98.63
2018-12-03T02:50:39.019Z,92.57
2018-12-03T02:53:08.450Z,95.50
2018-12-03T02:55:37.955Z,88.00
2018-12-03T02:58:07.355Z,87.80
2018-12-03T03:00:40.353Z,87.07
2018-12-03T03:03:09.919Z,87.33
2018-12-03T03:05:39.463Z,86.73
2018-12-03T03:08:08.893Z,92.33
2018-12-03T03:10:38.420Z,95.43
2018-12-03T03:13:07.843Z,93.73
2018-12-03T03:15:37.244Z,82.97
2018-12-03T03:18:07.036Z,88.73
2018-12-03T03:20:36.559Z,85.70
2018-12-03T03:23:06.469Z,84.93
2018-12-03T03:25:36.082Z,95.10
2018-12-03T03:28:05.699Z,84.03
2018-12-03T03:30:35.247Z,88.00
2018-12-03T03:33:04.929Z,89.17
2018-12-03T03:35:34.425Z,88.20
2018-12-03T03:38:03.963Z,96.33
2018-12-03T03:40:33.499Z,90.37
2018-12-03T03:43:03.004Z,84.27
2018-12-03T03:45:32.460Z,94.67
2018-12-03T03:48:01.966Z,91.20
2018-12-03T03:50:31.507Z,89.53
2018-12-03T03:53:01.126Z,94.77
2018-12-03T03:55:30.556Z,87.57
2018-12-03T03:58:00.064Z,84.17
2018-12-03T04:00:29.425Z,84.80
2018-12-03T04:02:58.880Z,88.93
2018-12-03T04:05:28.457Z,90.43
2018-12-03T04:07:57.866Z,93.07
2018-12-03T04:10:27.298Z,92.27
2018-12-03T04:12:56.889Z,86.40
2018-12-03T04:15:26.467Z,89.50
2018-12-03T04:17:55.880Z,85.00
2018-12-03T04:20:25.332Z,84.00
2018-12-03T04:22:55.710Z,85.03
2018-12-03T04:25:25.242Z,91.50
2018-12-03T04:27:54.922Z,90.03
2018-12-03T04:30:24.440Z,91.67
2018-12-03T04:32:54.479Z,84.73
2018-12-03T04:35:24.948Z,87.20
2018-12-03T04:37:54.574Z,88.97
2018-12-03T04:40:24.013Z,90.80
2018-12-03T04:42:53.511Z,87.63
2018-12-03T04:45:23.091Z,88.17
2018-12-03T04:47:52.696Z,89.53
2018-12-03T04:50:22.750Z,98.70
2018-12-03T04:52:52.409Z,84.23
2018-12-03T04:55:22.279Z,97.87
2018-12-03T04:57:51.824Z,95.80
2018-12-03T05:00:22.161Z,94.67
2018-12-03T05:02:52.664Z,101.33
2018-12-03T05:05:22.295Z,94.60
2018-12-03T05:07:51.820Z,97.20
2018-12-03T05:10:22.144Z,88.53
2018-12-03T05:12:53.003Z,95.90
2018-12-03T05:15:22.519Z,90.90
2018-12-03T05:17:52.118Z,90.50
2018-12-03T05:20:23.925Z,98.10
2018-12-03T05:22:53.478Z,98.30
2018-12-03T05:25:23.143Z,93.37
2018-12-03T05:27:52.789Z,92.57
2018-12-03T05:30:22.663Z,96.77
2018-12-03T05:32:52.180Z,97.07
2018-12-03T05:35:23.458Z,103.17
2018-12-03T05:37:52.939Z,90.17
2018-12-03T05:40:26.292Z,100.77
2018-12-03T05:42:55.814Z,95.30
2018-12-03T05:45:25.534Z,99.20
2018-12-03T05:47:55.180Z,99.40
2018-12-03T05:50:26.039Z,89.57
2018-12-03T05:52:55.602Z,101.87
2018-12-03T05:55:25.375Z,94.00
2018-12-03T05:57:54.980Z,94.57
2018-12-03T06:00:25.221Z,95.10
2018-12-03T06:02:54.707Z,92.57
2018-12-03T06:05:24.690Z,93.20
2018-12-03T06:07:54.325Z,92.23
2018-12-03T06:10:24.074Z,100.03
2018-12-03T06:12:53.594Z,101.40
2018-12-03T06:15:23.170Z,91.97
2018-12-03T06:17:53.756Z,99.53
2018-12-03T06:20:23.924Z,101.23
2018-12-03T06:22:54.474Z,87.33
2018-12-03T06:25:26.350Z,95.20
2018-12-03T06:27:56.038Z,89.17
2018-12-03T06:30:26.435Z,109.23
2018-12-03T06:32:55.956Z,113.57
2018-12-03T06:35:25.539Z,116.40
2018-12-03T06:37:55.096Z,104.70
2018-12-03T06:40:26.807Z,103.83
2018-12-03T06:42:56.231Z,109.60
2018-12-03T06:45:26.251Z,89.70
2018-12-03T06:48:07.046Z,113.50
2018-12-03T06:50:36.450Z,101.20
2018-12-03T06:53:06.119Z,96.87
2018-12-03T06:55:35.620Z,98.80
2018-12-03T06:58:05.147Z,98.57
2018-12-03T07:00:34.635Z,102.80
2018-12-03T07:03:05.202Z,105.37
2018-12-03T07:05:34.824Z,99.13
2018-12-03T07:08:04.825Z,110.33
2018-12-03T07:10:34.514Z,98.60
2018-12-03T07:13:09.004Z,90.57
2018-12-03T07:15:40.306Z,93.27
2018-12-03T07:18:10.721Z,93.30
2018-12-03T07:20:42.060Z,101.13
2018-12-03T07:23:11.667Z,102.93
2018-12-03T07:25:41.163Z,97.23
2018-12-03T07:28:10.585Z,91.17
2018-12-03T07:30:39.989Z,101.00
2018-12-03T07:33:09.740Z,84.87
2018-12-03T07:35:39.314Z,91.70
2018-12-03T07:38:08.912Z,87.87
2018-12-03T07:40:38.353Z,87.20
2018-12-03T07:43:07.925Z,90.33
2018-12-03T07:45:37.493Z,97.37
2018-12-03T07:48:06.970Z,97.50
2018-12-03T07:50:36.480Z,89.73
2018-12-03T07:53:06.350Z,88.17
2018-12-03T07:55:36.034Z,85.30
2018-12-03T07:58:12.013Z,85.07
2018-12-03T08:00:46.848Z,87.60
2018-12-03T08:03:16.328Z,82.77
2018-12-03T08:05:45.727Z,83.23
2018-12-03T08:08:15.180Z,89.00
2018-12-03T08:10:47.822Z,83.67
2018-12-03T08:13:18.106Z,86.77
2018-12-03T08:15:47.715Z,82.93
2018-12-03T08:18:18.696Z,89.63
2018-12-03T08:20:51.806Z,87.67
2018-12-03T08:23:29.764Z,83.00
2018-12-03T08:25:59.449Z,81.20
2018-12-03T08:28:29.107Z,81.00
2018-12-03T08:30:58.594Z,89.67
2018-12-03T08:33:28.154Z,77.57
2018-12-03T08:35:57.688Z,85.03
2018-12-03T08:38:27.209Z,84.23
2018-12-03T08:40:56.630Z,80.43
2018-12-03T08:43:26.298Z,82.83
2018-12-03T08:46:00.904Z,82.17
2018-12-03T08:48:35.934Z,85.60
2018-12-03T08:51:05.554Z,81.57
2018-12-03T08:53:35.164Z,82.63
2018-12-03T08:56:04.805Z,84.87
2018-12-03T08:58:34.360Z,81.70
2018-12-03T09:01:08.387Z,79.60
2018-12-03T09:03:38.020Z,82.97
2018-12-03T09:06:10.480Z,80.30
2018-12-03T09:08:40.091Z,81.83
2018-12-03T09:11:11.664Z,77.07
2018-12-03T09:13:41.136Z,92.83
2018-12-03T09:16:10.631Z,82.13
2018-12-03T09:18:41.484Z,73.53
2018-12-03T09:21:12.968Z,77.67
2018-12-03T09:23:43.539Z,83.33
2018-12-03T09:26:13.817Z,76.40
2018-12-03T09:28:43.531Z,79.80
2018-12-03T09:31:18.109Z,78.33
2018-12-03T09:33:53.843Z,77.30
2018-12-03T09:36:24.421Z,77.53
2018-12-03T09:39:17.014Z,68.63
2018-12-03T09:41:47.536Z,82.67
2018-12-03T09:44:17.179Z,78.87
2018-12-03T09:46:46.600Z,79.60
2018-12-03T09:49:16.019Z,79.70
2018-12-03T09:51:45.525Z,72.83
2018-12-03T09:54:15.198Z,79.20
2018-12-03T09:56:46.476Z,77.00
2018-12-03T09:59:18.011Z,77.10
2018-12-03T10:01:48.917Z,76.97
2018-12-03T10:04:21.048Z,74.20
2018-12-03T10:06:50.658Z,70.10
2018-12-03T10:09:20.235Z,73.47
2018-12-03T10:11:49.823Z,70.40
2018-12-03T10:14:20.834Z,71.13
2018-12-03T10:16:50.278Z,69.60
2018-12-03T10:19:19.782Z,74.00
2018-12-03T10:21:49.394Z,77.03
2018-12-03T10:24:18.965Z,72.10
2018-12-03T10:26:48.420Z,65.70
2018-12-03T10:29:18.554Z,66.83
2018-12-03T10:31:48.146Z,59.73
2018-12-03T10:34:19.075Z,59.80
2018-12-03T10:36:53.576Z,61.57
2018-12-03T10:39:25.383Z,63.73
2018-12-03T10:41:59.819Z,64.87
2018-12-03T10:44:29.386Z,69.13
2018-12-03T10:46:58.977Z,63.57
2018-12-03T10:49:28.551Z,66.20
2018-12-03T10:51:58.112Z,63.00
2018-12-03T10:54:27.715Z,68.20
2018-12-03T10:56:58.559Z,66.43
2018-12-03T10:59:28.194Z,66.13
2018-12-03T11:02:01.961Z,67.03
2018-12-03T11:04:40.360Z,64.57
2018-12-03T11:07:14.253Z,64.63
2018-12-03T11:09:44.076Z,67.80
2018-12-03T11:12:13.712Z,65.27
2018-12-03T11:14:43.475Z,69.67
2018-12-03T11:17:13.118Z,67.90
2018-12-03T11:19:47.024Z,67.43
2018-12-03T11:22:21.850Z,64.07
2018-12-03T11:24:51.458Z,69.33
2018-12-03T11:27:21.777Z,66.27
2018-12-03T11:29:51.493Z,62.87
2018-12-03T11:32:22.142Z,62.97
2018-12-03T11:34:51.780Z,68.83
2018-12-03T11:37:21.911Z,64.33
2018-12-03T11:39:56.750Z,70.10
2018-12-03T11:42:31.355Z,62.70
2018-12-03T11:45:00.903Z,66.13
2018-12-03T11:47:30.479Z,68.40
2018-12-03T11:50:00.087Z,68.60
2018-12-03T11:52:29.595Z,68.13
2018-12-03T11:54:59.134Z,65.47
2018-12-03T11:57:29.010Z,64.23
2018-12-03T11:59:58.545Z,70.03
2018-12-03T12:02:28.150Z,67.97
2018-12-03T12:04:57.651Z,63.73
2018-12-03T12:07:27.251Z,65.37
2018-12-03T12:09:56.861Z,67.90
2018-12-03T12:12:26.698Z,65.07
2018-12-03T12:14:56.507Z,60.97
2018-12-03T12:17:26.118Z,62.93
2018-12-03T12:19:55.691Z,67.47
2018-12-03T12:22:25.272Z,60.93
2018-12-03T12:24:55.003Z,65.87
2018-12-03T12:27:24.499Z,62.70
2018-12-03T12:29:54.110Z,65.67
2018-12-03T12:32:23.698Z,70.50
2018-12-03T12:34:53.147Z,65.40
2018-12-03T12:37:22.843Z,62.20
2018-12-03T12:39:52.427Z,65.67
2018-12-03T12:42:21.939Z,61.60
2018-12-03T12:44:51.417Z,61.60
2018-12-03T12:47:21.063Z,60.40
2018-12-03T12:49:50.676Z,61.17
2018-12-03T12:52:20.148Z,59.63
2018-12-03T12:54:49.753Z,62.47
2018-12-03T12:57:19.243Z,67.43
2018-12-03T12:59:48.813Z,60.47
2018-12-03T13:02:18.648Z,60.53
2018-12-03T13:04:48.201Z,59.20
2018-12-03T13:07:17.732Z,64.97
2018-12-03T13:09:47.234Z,63.00
2018-12-03T13:12:16.901Z,64.23
2018-12-03T13:14:46.433Z,61.57
2018-12-03T13:17:15.949Z,62.77
2018-12-03T13:19:45.595Z,65.17
2018-12-03T13:22:15.139Z,63.70
2018-12-03T13:24:44.648Z,62.40
2018-12-03T13:27:14.272Z,64.00
2018-12-03T13:29:43.829Z,64.23
2018-12-03T13:32:13.364Z,64.10
2018-12-03T13:34:42.879Z,63.20
2018-12-03T13:37:12.457Z,64.50
2018-12-03T13:39:41.948Z,63.00
2018-12-03T13:42:11.473Z,65.33
2018-12-03T13:44:40.859Z,60.90
2018-12-03T13:47:10.480Z,62.03
2018-12-03T13:49:39.893Z,64.27
2018-12-03T13:52:09.395Z,63.23
2018-12-03T13:54:38.753Z,65.57
2018-12-03T13:57:08.503Z,62.60
2018-12-03T13:59:38.434Z,64.70
2018-12-03T14:02:09.606Z,60.93
2018-12-03T14:04:39.381Z,57.57
2018-12-03T14:07:14.737Z,56.37
2018-12-03T14:10:25.823Z,59.40
2018-12-03T14:13:30.028Z,60.10
2018-12-03T14:16:23.227Z,55.20
2018-12-03T14:18:57.959Z,59.13
2018-12-03T14:21:33.605Z,60.70
2018-12-03T14:24:03.497Z,55.83
2018-12-03T14:26:33.675Z,54.07
2018-12-03T14:29:03.275Z,56.77
2018-12-03T14:31:33.003Z,55.10
2018-12-03T14:34:02.306Z,55.10
2018-12-03T14:36:31.619Z,55.77
2018-12-03T14:39:00.888Z,58.80
2018-12-03T14:41:30.175Z,61.60
2018-12-03T14:43:59.431Z,62.20
2018-12-03T14:46:28.697Z,58.80
2018-12-03T14:48:58.000Z,62.03
2018-12-03T14:51:27.293Z,60.43
2018-12-03T14:53:56.716Z,62.67
2018-12-03T14:56:26.323Z,64.60
2018-12-03T14:58:56.083Z,66.57
2018-12-03T15:01:25.741Z,63.27
2018-12-03T15:03:55.393Z,60.70
2018-12-03T15:06:24.839Z,62.00
2018-12-03T15:08:54.260Z,62.67
2018-12-03T15:11:23.633Z,60.97
2018-12-03T15:13:53.019Z,57.40
2018-12-03T15:16:22.530Z,59.90
2018-12-03T15:18:52.009Z,57.90
2018-12-03T15:21:21.558Z,60.57
2018-12-03T15:23:50.908Z,62.13
2018-12-03T15:26:20.509Z,64.03
2018-12-03T15:28:50.091Z,66.80
2018-12-03T15:31:19.561Z,63.27
2018-12-03T15:33:49.011Z,64.10
2018-12-03T15:36:18.580Z,66.83
2018-12-03T15:38:48.047Z,85.93
2018-12-03T15:41:17.592Z,80.27
2018-12-03T15:43:47.195Z,78.87
2018-12-03T15:46:16.767Z,76.00
2018-12-03T15:48:46.469Z,76.03
2018-12-03T15:51:16.224Z,68.43
2018-12-03T15:53:46.444Z,80.33
2018-12-03T15:56:16.602Z,87.40
2018-12-03T15:58:47.002Z,102.90
2018-12-03T16:01:17.093Z,92.63
2018-12-03T16:03:46.797Z,54.17
2018-12-03T16:06:16.345Z,64.17
2018-12-03T16:08:47.136Z,65.00
2018-12-03T16:11:18.075Z,58.67
2018-12-03T16:13:48.751Z,72.47
2018-12-03T16:16:18.688Z,51.77
2018-12-03T16:18:48.593Z,56.30
2018-12-03T16:21:18.796Z,54.20
2018-12-03T16:23:49.205Z,60.90
2018-12-03T16:26:19.103Z,62.87
2018-12-03T16:28:49.453Z,61.83
2018-12-03T16:31:19.468Z,62.83
2018-12-03T16:33:50.130Z,69.23
2018-12-03T16:36:20.830Z,63.77
2018-12-03T16:38:51.546Z,67.70
2018-12-03T16:41:22.050Z,72.67
2018-12-03T16:43:52.710Z,54.17
2018-12-03T16:46:23.477Z,51.17
2018-12-03T16:48:54.202Z,64.60
2018-12-03T16:51:25.336Z,63.83
2018-12-03T16:53:56.466Z,58.03
2018-12-03T16:56:27.335Z,53.07
2018-12-03T16:58:57.862Z,64.70
2018-12-03T17:01:28.664Z,66.83
2018-12-03T17:03:59.716Z,69.13
2018-12-03T17:06:30.352Z,85.57
2018-12-03T17:09:00.997Z,103.30
2018-12-03T17:11:31.747Z,80.83
2018-12-03T17:14:02.522Z,79.07
2018-12-03T17:16:33.257Z,73.40
2018-12-03T17:19:03.988Z,75.57
2018-12-03T17:21:48.300Z,83.07
2018-12-03T17:24:24.223Z,84.03
2018-12-03T17:26:55.281Z,76.03
2018-12-03T17:30:01.503Z,55.67
2018-12-03T17:32:32.238Z,55.30
2018-12-03T17:35:02.932Z,54.13
2018-12-03T17:37:33.565Z,57.13
2018-12-03T17:40:05.989Z,53.07
2018-12-03T17:42:37.076Z,46.77
2018-12-03T17:45:11.354Z,56.03
2018-12-03T17:47:42.572Z,52.33
2018-12-03T17:50:13.636Z,51.23
2018-12-03T17:52:44.504Z,58.07
2018-12-03T17:55:18.474Z,64.53
2018-12-03T17:57:50.079Z,148.30
2018-12-03T18:00:21.224Z,138.17
2018-12-03T18:02:52.653Z,116.63
2018-12-03T18:05:23.653Z,113.70
2018-12-03T18:07:54.493Z,109.47
2018-12-03T18:10:25.243Z,113.33
2018-12-03T18:12:57.609Z,103.87
2018-12-03T18:15:28.498Z,86.67
2018-12-03T18:17:59.266Z,85.43
2018-12-03T18:20:30.936Z,76.03
2018-12-03T18:23:02.897Z,75.53
2018-12-03T18:25:33.871Z,77.47
2018-12-03T18:28:04.627Z,72.47
2018-12-03T18:30:36.991Z,80.47
2018-12-03T18:33:07.631Z,76.40
2018-12-03T18:35:38.507Z,82.93
2018-12-03T18:38:09.213Z,93.67
2018-12-03T18:40:39.891Z,93.20
2018-12-03T18:43:10.694Z,95.13
2018-12-03T18:45:41.900Z,76.57
2018-12-03T18:48:14.327Z,77.90
2018-12-03T18:50:47.763Z,83.07
2018-12-03T18:53:29.635Z,76.50
2018-12-03T18:56:00.548Z,85.33
2018-12-03T18:58:35.271Z,99.83
2018-12-03T19:01:07.008Z,138.83
2018-12-03T19:03:38.113Z,168.93
2018-12-03T19:06:09.425Z,131.93
2018-12-03T19:08:40.728Z,150.17
2018-12-03T19:11:11.752Z,152.43
2018-12-03T19:13:42.705Z,156.70
2018-12-03T19:16:13.688Z,121.30
2018-12-03T19:18:44.376Z,97.47
2018-12-03T19:21:15.264Z,90.77
2018-12-03T19:23:45.968Z,106.33
2018-12-03T19:26:18.508Z,97.97
2018-12-03T19:28:49.632Z,93.13
2018-12-03T19:31:20.488Z,97.87
2018-12-03T19:33:51.370Z,88.77
2018-12-03T19:36:22.112Z,101.33
2018-12-03T19:38:52.923Z,119.83
2018-12-03T19:41:24.516Z,86.87
2018-12-03T19:43:55.275Z,84.10
2018-12-03T19:46:26.012Z,96.43
2018-12-03T19:48:56.726Z,84.80
2018-12-03T19:51:27.510Z,87.50
2018-12-03T19:53:58.841Z,96.47
2018-12-03T19:56:29.916Z,86.17
2018-12-03T19:59:01.173Z,90.37
2018-12-03T20:01:32.211Z,97.97
2018-12-03T20:04:03.545Z,109.07
2018-12-03T20:06:34.676Z,97.23
2018-12-03T20:09:06.955Z,102.10
2018-12-03T20:11:37.829Z,98.83
2018-12-03T20:14:08.813Z,101.10
2018-12-03T20:16:39.793Z,104.23
2018-12-03T20:19:10.513Z,115.10
2018-12-03T20:21:41.628Z,105.23
2018-12-03T20:24:14.455Z,108.90
2018-12-03T20:26:49.701Z,103.97
2018-12-03T20:29:30.550Z,107.97
2018-12-03T20:33:08.883Z,101.57
2018-12-03T20:38:02.444Z,106.87
2018-12-03T20:41:00.252Z,90.80
2018-12-03T20:43:32.287Z,93.27
2018-12-03T20:46:10.595Z,126.63
2018-12-03T20:48:51.928Z,108.67
2018-12-03T20:51:30.480Z,102.43
2018-12-03T20:54:01.533Z,99.00
2018-12-03T20:56:32.253Z,93.33
2018-12-03T20:59:03.035Z,87.10
2018-12-03T21:01:36.039Z,94.67
2018-12-03T21:04:06.815Z,106.10
2018-12-03T21:06:37.554Z,99.07
2018-12-03T21:09:08.386Z,94.83
2018-12-03T21:11:39.104Z,104.00
2018-12-03T21:14:09.821Z,109.93
2018-12-03T21:16:40.928Z,99.37
2018-12-03T21:19:11.992Z,101.23
2018-12-03T21:21:42.813Z,97.57
2018-12-03T21:24:13.913Z,94.77
2018-12-03T21:26:44.631Z,103.93
2018-12-03T21:29:15.351Z,92.73
2018-12-03T21:31:46.088Z,98.03
2018-12-03T21:34:16.709Z,99.10
2018-12-03T21:36:47.928Z,98.13
2018-12-03T21:39:18.968Z,95.77
2018-12-03T21:41:49.721Z,97.93
2018-12-03T21:44:20.701Z,97.30
2018-12-03T21:46:51.379Z,105.70
2018-12-03T21:49:23.386Z,106.57
2018-12-03T21:51:54.087Z,110.73
2018-12-03T21:54:24.813Z,111.87
2018-12-03T21:56:55.386Z,104.90
2018-12-03T21:59:25.772Z,104.43
2018-12-03T22:01:56.447Z,106.93
2018-12-03T22:04:27.282Z,100.43
2018-12-03T22:06:57.935Z,102.87
2018-12-03T22:09:28.744Z,100.00
2018-12-03T22:11:59.564Z,93.80
2018-12-03T22:14:30.338Z,101.33
2018-12-03T22:17:00.861Z,103.13
2018-12-03T22:19:31.656Z,109.07
2018-12-03T22:22:02.236Z,110.77
2018-12-03T22:24:32.487Z,101.80
2018-12-03T22:27:02.421Z,111.90
2018-12-03T22:29:32.263Z,109.40
2018-12-03T22:32:01.883Z,116.53
2018-12-03T22:34:31.642Z,118.07
2018-12-03T22:37:01.282Z,123.77
2018-12-03T22:39:30.796Z,112.67
2018-12-03T22:42:00.396Z,119.73
2018-12-03T22:44:30.207Z,118.83
2018-12-03T22:46:59.658Z,114.43
2018-12-03T22:49:29.174Z,122.23
2018-12-03T22:51:58.707Z,120.77
2018-12-03T22:54:28.203Z,113.17
2018-12-03T22:56:57.767Z,119.50
2018-12-03T22:59:27.535Z,116.03
2018-12-03T23:01:57.046Z,120.73
2018-12-03T23:04:26.588Z,120.20
2018-12-03T23:06:56.033Z,118.23
2018-12-03T23:09:25.451Z,119.60
2018-12-03T23:11:54.834Z,109.33
2018-12-03T23:14:24.310Z,112.97
2018-12-03T23:16:54.162Z,114.27
2018-12-03T23:19:23.554Z,110.00
2018-12-03T23:21:52.979Z,125.33
2018-12-03T23:24:22.520Z,130.83
2018-12-03T23:26:52.151Z,117.77
2018-12-03T23:29:21.560Z,132.90
2018-12-03T23:31:50.997Z,108.97
2018-12-03T23:34:20.541Z,121.37
2018-12-03T23:36:50.093Z,129.87
2018-12-03T23:39:19.765Z,124.33
2018-12-03T23:41:49.355Z,118.07
2018-12-03T23:44:18.875Z,121.20
2018-12-03T23:46:48.420Z,125.47
2018-12-03T23:49:17.918Z,117.57
2018-12-03T23:51:47.378Z,122.00
2018-12-03T23:54:16.879Z,119.10
2018-12-03T23:56:46.451Z,110.63
2018-12-03T23:59:15.927Z,110.50
